sensor_id;sensor_type;location;lat;lon;timestamp;temperature;humidity
27306;DHT22;14792;50.886;6.468;2023-04-06T00:00:52;2.20;99.90
27306;DHT22;14792;50.886;6.468;2023-04-06T00:03:53;2.10;99.90
27306;DHT22;14792;50.886;6.468;2023-04-06T00:06:55;2.10;99.90
27306;DHT22;14792;50.886;6.468;2023-04-06T00:09:56;2.10;99.90
27306;DHT22;14792;50.886;6.468;2023-04-06T00:12:58;2.00;99.90
27306;DHT22;14792;50.886;6.468;2023-04-06T00:16:00;1.90;99.90
27306;DHT22;14792;50.886;6.468;2023-04-06T00:19:01;1.90;99.90
27306;DHT22;14792;50.886;6.468;2023-04-06T00:22:03;1.80;99.90
27306;DHT22;14792;50.886;6.468;2023-04-06T00:25:05;1.80;99.90
27306;DHT22;14792;50.886;6.468;2023-04-06T00:28:06;1.60;99.90
27306;DHT22;14792;50.886;6.468;2023-04-06T00:31:08;1.70;99.90
27306;DHT22;14792;50.886;6.468;2023-04-06T00:34:09;1.50;99.90
27306;DHT22;14792;50.886;6.468;2023-04-06T00:37:11;1.50;99.90
27306;DHT22;14792;50.886;6.468;2023-04-06T00:40:12;1.40;99.90
27306;DHT22;14792;50.886;6.468;2023-04-06T00:43:14;1.30;99.90
27306;DHT22;14792;50.886;6.468;2023-04-06T00:46:16;1.40;99.90
27306;DHT22;14792;50.886;6.468;2023-04-06T00:49:17;1.40;99.90
27306;DHT22;14792;50.886;6.468;2023-04-06T00:52:19;1.40;99.90
27306;DHT22;14792;50.886;6.468;2023-04-06T00:55:20;1.40;99.90
27306;DHT22;14792;50.886;6.468;2023-04-06T00:58:22;1.50;99.90
27306;DHT22;14792;50.886;6.468;2023-04-06T01:01:23;1.40;99.90
27306;DHT22;14792;50.886;6.468;2023-04-06T01:04:25;1.50;99.90
27306;DHT22;14792;50.886;6.468;2023-04-06T01:07:30;1.40;99.90
27306;DHT22;14792;50.886;6.468;2023-04-06T01:10:31;1.40;99.90
27306;DHT22;14792;50.886;6.468;2023-04-06T01:13:33;1.50;99.90
27306;DHT22;14792;50.886;6.468;2023-04-06T01:16:35;1.50;99.90
27306;DHT22;14792;50.886;6.468;2023-04-06T01:19:36;1.50;99.90
27306;DHT22;14792;50.886;6.468;2023-04-06T01:22:38;1.50;99.90
27306;DHT22;14792;50.886;6.468;2023-04-06T01:25:39;1.50;99.90
27306;DHT22;14792;50.886;6.468;2023-04-06T01:28:41;1.50;99.90
27306;DHT22;14792;50.886;6.468;2023-04-06T01:31:42;1.50;99.90
27306;DHT22;14792;50.886;6.468;2023-04-06T01:34:44;1.30;99.90
27306;DHT22;14792;50.886;6.468;2023-04-06T01:37:46;1.10;99.90
27306;DHT22;14792;50.886;6.468;2023-04-06T01:40:47;1.00;99.90
27306;DHT22;14792;50.886;6.468;2023-04-06T01:43:49;1.00;99.90
27306;DHT22;14792;50.886;6.468;2023-04-06T01:46:51;1.00;99.90
27306;DHT22;14792;50.886;6.468;2023-04-06T01:49:52;1.10;99.90
27306;DHT22;14792;50.886;6.468;2023-04-06T01:52:54;1.10;99.90
27306;DHT22;14792;50.886;6.468;2023-04-06T01:55:55;1.10;99.90
27306;DHT22;14792;50.886;6.468;2023-04-06T01:58:57;1.10;99.90
27306;DHT22;14792;50.886;6.468;2023-04-06T02:01:59;1.00;99.90
27306;DHT22;14792;50.886;6.468;2023-04-06T02:05:01;1.00;99.90
27306;DHT22;14792;50.886;6.468;2023-04-06T02:08:02;1.00;99.90
27306;DHT22;14792;50.886;6.468;2023-04-06T02:11:04;1.00;99.90
27306;DHT22;14792;50.886;6.468;2023-04-06T02:14:05;0.90;99.90
27306;DHT22;14792;50.886;6.468;2023-04-06T02:17:07;0.90;99.90
27306;DHT22;14792;50.886;6.468;2023-04-06T02:20:09;0.90;99.90
27306;DHT22;14792;50.886;6.468;2023-04-06T02:23:10;0.90;99.90
27306;DHT22;14792;50.886;6.468;2023-04-06T02:26:12;0.80;99.90
27306;DHT22;14792;50.886;6.468;2023-04-06T02:29:13;0.80;99.90
27306;DHT22;14792;50.886;6.468;2023-04-06T02:32:15;0.80;99.90
27306;DHT22;14792;50.886;6.468;2023-04-06T02:35:17;0.90;99.90
27306;DHT22;14792;50.886;6.468;2023-04-06T02:38:18;0.80;99.90
27306;DHT22;14792;50.886;6.468;2023-04-06T02:41:20;0.80;99.90
27306;DHT22;14792;50.886;6.468;2023-04-06T02:44:21;0.70;99.90
27306;DHT22;14792;50.886;6.468;2023-04-06T02:47:23;0.70;99.90
27306;DHT22;14792;50.886;6.468;2023-04-06T02:50:25;0.60;99.90
27306;DHT22;14792;50.886;6.468;2023-04-06T02:53:26;0.50;99.90
27306;DHT22;14792;50.886;6.468;2023-04-06T02:56:29;0.40;99.90
27306;DHT22;14792;50.886;6.468;2023-04-06T02:59:31;0.40;99.90
27306;DHT22;14792;50.886;6.468;2023-04-06T03:02:32;0.50;99.90
27306;DHT22;14792;50.886;6.468;2023-04-06T03:05:34;0.50;99.90
27306;DHT22;14792;50.886;6.468;2023-04-06T03:08:35;0.50;99.90
27306;DHT22;14792;50.886;6.468;2023-04-06T03:11:37;0.50;99.90
27306;DHT22;14792;50.886;6.468;2023-04-06T03:14:39;0.50;99.90
27306;DHT22;14792;50.886;6.468;2023-04-06T03:17:41;0.60;99.90
27306;DHT22;14792;50.886;6.468;2023-04-06T03:20:43;0.50;99.90
27306;DHT22;14792;50.886;6.468;2023-04-06T03:23:45;0.50;99.90
27306;DHT22;14792;50.886;6.468;2023-04-06T03:26:47;0.50;99.90
27306;DHT22;14792;50.886;6.468;2023-04-06T03:29:49;0.50;99.90
27306;DHT22;14792;50.886;6.468;2023-04-06T03:32:51;0.50;99.90
27306;DHT22;14792;50.886;6.468;2023-04-06T03:35:53;0.50;99.90
27306;DHT22;14792;50.886;6.468;2023-04-06T03:38:55;0.50;99.90
27306;DHT22;14792;50.886;6.468;2023-04-06T03:41:57;0.50;99.90
27306;DHT22;14792;50.886;6.468;2023-04-06T03:44:59;0.40;99.90
27306;DHT22;14792;50.886;6.468;2023-04-06T03:48:00;0.40;99.90
27306;DHT22;14792;50.886;6.468;2023-04-06T03:51:03;0.30;99.90
27306;DHT22;14792;50.886;6.468;2023-04-06T03:54:05;0.40;99.90
27306;DHT22;14792;50.886;6.468;2023-04-06T03:57:06;0.30;99.90
27306;DHT22;14792;50.886;6.468;2023-04-06T04:00:08;0.30;99.90
27306;DHT22;14792;50.886;6.468;2023-04-06T04:03:10;0.30;99.90
27306;DHT22;14792;50.886;6.468;2023-04-06T04:06:11;0.30;99.90
27306;DHT22;14792;50.886;6.468;2023-04-06T04:09:13;0.30;99.90
27306;DHT22;14792;50.886;6.468;2023-04-06T04:12:14;0.30;99.90
27306;DHT22;14792;50.886;6.468;2023-04-06T04:15:16;0.40;99.90
27306;DHT22;14792;50.886;6.468;2023-04-06T04:18:18;0.40;99.90
27306;DHT22;14792;50.886;6.468;2023-04-06T04:21:19;0.40;99.90
27306;DHT22;14792;50.886;6.468;2023-04-06T04:24:21;0.50;99.90
27306;DHT22;14792;50.886;6.468;2023-04-06T04:27:22;0.50;99.90
27306;DHT22;14792;50.886;6.468;2023-04-06T04:30:24;0.40;99.90
27306;DHT22;14792;50.886;6.468;2023-04-06T04:33:26;0.40;99.90
27306;DHT22;14792;50.886;6.468;2023-04-06T04:36:27;0.40;99.90
27306;DHT22;14792;50.886;6.468;2023-04-06T04:39:29;0.40;99.90
27306;DHT22;14792;50.886;6.468;2023-04-06T04:42:30;0.40;99.90
27306;DHT22;14792;50.886;6.468;2023-04-06T04:45:32;0.50;99.90
27306;DHT22;14792;50.886;6.468;2023-04-06T04:48:34;0.70;99.90
27306;DHT22;14792;50.886;6.468;2023-04-06T04:51:35;0.80;99.90
27306;DHT22;14792;50.886;6.468;2023-04-06T04:54:37;0.80;99.90
27306;DHT22;14792;50.886;6.468;2023-04-06T04:57:38;0.80;99.90
27306;DHT22;14792;50.886;6.468;2023-04-06T05:00:40;0.80;99.90
27306;DHT22;14792;50.886;6.468;2023-04-06T05:03:41;0.80;99.90
27306;DHT22;14792;50.886;6.468;2023-04-06T05:06:43;0.90;99.90
27306;DHT22;14792;50.886;6.468;2023-04-06T05:09:45;1.10;99.90
27306;DHT22;14792;50.886;6.468;2023-04-06T05:12:46;1.10;99.90
27306;DHT22;14792;50.886;6.468;2023-04-06T05:15:48;1.10;99.90
27306;DHT22;14792;50.886;6.468;2023-04-06T05:18:49;1.20;99.90
27306;DHT22;14792;50.886;6.468;2023-04-06T05:21:51;1.20;99.90
27306;DHT22;14792;50.886;6.468;2023-04-06T05:24:52;1.20;99.90
27306;DHT22;14792;50.886;6.468;2023-04-06T05:27:54;1.10;99.90
27306;DHT22;14792;50.886;6.468;2023-04-06T05:30:56;1.10;99.90
27306;DHT22;14792;50.886;6.468;2023-04-06T05:33:57;1.20;99.90
27306;DHT22;14792;50.886;6.468;2023-04-06T05:36:59;1.20;99.90
27306;DHT22;14792;50.886;6.468;2023-04-06T05:40:00;1.20;99.90
27306;DHT22;14792;50.886;6.468;2023-04-06T05:43:02;1.50;99.90
27306;DHT22;14792;50.886;6.468;2023-04-06T05:46:04;1.60;99.90
27306;DHT22;14792;50.886;6.468;2023-04-06T05:49:05;1.80;99.90
27306;DHT22;14792;50.886;6.468;2023-04-06T05:52:07;2.00;99.90
27306;DHT22;14792;50.886;6.468;2023-04-06T05:55:09;2.20;99.90
27306;DHT22;14792;50.886;6.468;2023-04-06T05:58:10;2.40;99.90
27306;DHT22;14792;50.886;6.468;2023-04-06T06:01:12;2.60;99.90
27306;DHT22;14792;50.886;6.468;2023-04-06T06:04:13;2.70;99.90
27306;DHT22;14792;50.886;6.468;2023-04-06T06:07:15;2.80;99.90
27306;DHT22;14792;50.886;6.468;2023-04-06T06:10:16;2.90;99.90
27306;DHT22;14792;50.886;6.468;2023-04-06T06:13:18;3.10;99.90
27306;DHT22;14792;50.886;6.468;2023-04-06T06:16:20;3.20;99.90
27306;DHT22;14792;50.886;6.468;2023-04-06T06:19:21;3.30;99.90
27306;DHT22;14792;50.886;6.468;2023-04-06T06:22:23;3.40;99.90
27306;DHT22;14792;50.886;6.468;2023-04-06T06:25:24;3.50;99.90
27306;DHT22;14792;50.886;6.468;2023-04-06T06:28:26;3.60;99.90
27306;DHT22;14792;50.886;6.468;2023-04-06T06:31:27;3.70;99.90
27306;DHT22;14792;50.886;6.468;2023-04-06T06:34:29;3.70;99.90
27306;DHT22;14792;50.886;6.468;2023-04-06T06:37:31;3.90;99.90
27306;DHT22;14792;50.886;6.468;2023-04-06T06:40:33;4.00;99.90
27306;DHT22;14792;50.886;6.468;2023-04-06T06:43:34;4.10;99.90
27306;DHT22;14792;50.886;6.468;2023-04-06T06:46:35;4.10;99.90
27306;DHT22;14792;50.886;6.468;2023-04-06T06:49:37;4.10;99.90
27306;DHT22;14792;50.886;6.468;2023-04-06T06:52:39;4.10;99.90
27306;DHT22;14792;50.886;6.468;2023-04-06T06:55:40;4.20;99.90
27306;DHT22;14792;50.886;6.468;2023-04-06T06:58:42;4.40;99.90
27306;DHT22;14792;50.886;6.468;2023-04-06T07:01:43;4.50;99.90
27306;DHT22;14792;50.886;6.468;2023-04-06T07:04:47;4.50;99.90
27306;DHT22;14792;50.886;6.468;2023-04-06T07:07:46;4.60;99.90
27306;DHT22;14792;50.886;6.468;2023-04-06T07:10:49;4.60;99.90
27306;DHT22;14792;50.886;6.468;2023-04-06T07:13:50;4.50;99.90
27306;DHT22;14792;50.886;6.468;2023-04-06T07:16:51;4.80;99.90
27306;DHT22;14792;50.886;6.468;2023-04-06T07:19:53;5.10;99.90
27306;DHT22;14792;50.886;6.468;2023-04-06T07:22:54;5.50;99.90
27306;DHT22;14792;50.886;6.468;2023-04-06T07:25:56;5.90;99.90
27306;DHT22;14792;50.886;6.468;2023-04-06T07:28:58;6.20;99.90
27306;DHT22;14792;50.886;6.468;2023-04-06T07:31:59;6.40;99.90
27306;DHT22;14792;50.886;6.468;2023-04-06T07:35:01;6.60;99.90
27306;DHT22;14792;50.886;6.468;2023-04-06T07:38:02;6.70;99.90
27306;DHT22;14792;50.886;6.468;2023-04-06T07:41:04;6.90;99.90
27306;DHT22;14792;50.886;6.468;2023-04-06T07:44:05;7.00;99.90
27306;DHT22;14792;50.886;6.468;2023-04-06T07:47:07;7.00;99.90
27306;DHT22;14792;50.886;6.468;2023-04-06T07:50:09;7.10;99.90
27306;DHT22;14792;50.886;6.468;2023-04-06T07:53:10;7.10;99.90
27306;DHT22;14792;50.886;6.468;2023-04-06T07:56:12;7.20;99.90
27306;DHT22;14792;50.886;6.468;2023-04-06T07:59:14;7.50;99.90
27306;DHT22;14792;50.886;6.468;2023-04-06T08:02:15;7.60;99.90
27306;DHT22;14792;50.886;6.468;2023-04-06T08:05:17;8.00;99.90
27306;DHT22;14792;50.886;6.468;2023-04-06T08:08:19;8.10;99.90
27306;DHT22;14792;50.886;6.468;2023-04-06T08:11:20;8.50;99.90
27306;DHT22;14792;50.886;6.468;2023-04-06T08:14:21;8.60;99.90
27306;DHT22;14792;50.886;6.468;2023-04-06T08:17:23;8.60;99.90
27306;DHT22;14792;50.886;6.468;2023-04-06T08:20:25;8.50;99.90
27306;DHT22;14792;50.886;6.468;2023-04-06T08:23:26;8.40;99.90
27306;DHT22;14792;50.886;6.468;2023-04-06T08:26:28;8.30;99.90
27306;DHT22;14792;50.886;6.468;2023-04-06T08:29:29;8.30;99.90
27306;DHT22;14792;50.886;6.468;2023-04-06T08:32:31;8.30;99.90
27306;DHT22;14792;50.886;6.468;2023-04-06T08:35:33;8.50;99.90
27306;DHT22;14792;50.886;6.468;2023-04-06T08:38:35;8.40;99.90
27306;DHT22;14792;50.886;6.468;2023-04-06T08:41:36;8.40;99.90
27306;DHT22;14792;50.886;6.468;2023-04-06T08:44:37;8.50;99.90
27306;DHT22;14792;50.886;6.468;2023-04-06T08:47:39;8.60;99.90
27306;DHT22;14792;50.886;6.468;2023-04-06T08:50:41;8.80;99.90
27306;DHT22;14792;50.886;6.468;2023-04-06T08:53:44;9.10;99.90
27306;DHT22;14792;50.886;6.468;2023-04-06T08:56:45;9.40;99.90
27306;DHT22;14792;50.886;6.468;2023-04-06T08:59:47;9.50;99.90
27306;DHT22;14792;50.886;6.468;2023-04-06T09:02:49;9.70;99.90
27306;DHT22;14792;50.886;6.468;2023-04-06T09:05:50;9.80;99.90
27306;DHT22;14792;50.886;6.468;2023-04-06T09:08:52;10.00;99.90
27306;DHT22;14792;50.886;6.468;2023-04-06T09:11:53;10.10;99.90
27306;DHT22;14792;50.886;6.468;2023-04-06T09:14:56;10.30;99.90
27306;DHT22;14792;50.886;6.468;2023-04-06T09:17:57;10.50;99.90
27306;DHT22;14792;50.886;6.468;2023-04-06T09:21:02;10.70;99.90
27306;DHT22;14792;50.886;6.468;2023-04-06T09:24:03;11.00;99.90
27306;DHT22;14792;50.886;6.468;2023-04-06T09:27:04;11.20;99.90
27306;DHT22;14792;50.886;6.468;2023-04-06T09:33:08;11.60;99.90
27306;DHT22;14792;50.886;6.468;2023-04-06T09:36:09;11.80;99.90
27306;DHT22;14792;50.886;6.468;2023-04-06T09:39:11;12.00;99.90
27306;DHT22;14792;50.886;6.468;2023-04-06T09:42:25;12.20;99.90
27306;DHT22;14792;50.886;6.468;2023-04-06T09:45:29;12.40;99.90
27306;DHT22;14792;50.886;6.468;2023-04-06T09:48:30;12.60;99.90
27306;DHT22;14792;50.886;6.468;2023-04-06T09:51:38;12.40;99.90
27306;DHT22;14792;50.886;6.468;2023-04-06T09:54:39;12.50;99.90
27306;DHT22;14792;50.886;6.468;2023-04-06T09:57:55;12.40;99.90
27306;DHT22;14792;50.886;6.468;2023-04-06T10:01:06;12.20;99.90
27306;DHT22;14792;50.886;6.468;2023-04-06T10:04:29;12.30;99.90
27306;DHT22;14792;50.886;6.468;2023-04-06T10:07:27;12.30;99.90
27306;DHT22;14792;50.886;6.468;2023-04-06T10:10:29;12.60;99.90
27306;DHT22;14792;50.886;6.468;2023-04-06T10:13:30;12.80;99.90
27306;DHT22;14792;50.886;6.468;2023-04-06T10:16:32;12.90;99.90
27306;DHT22;14792;50.886;6.468;2023-04-06T10:19:36;13.10;99.90
27306;DHT22;14792;50.886;6.468;2023-04-06T10:22:45;13.30;99.90
27306;DHT22;14792;50.886;6.468;2023-04-06T10:25:57;13.20;99.90
27306;DHT22;14792;50.886;6.468;2023-04-06T10:29:01;13.20;99.90
27306;DHT22;14792;50.886;6.468;2023-04-06T10:31:57;13.20;99.90
27306;DHT22;14792;50.886;6.468;2023-04-06T10:35:06;13.10;99.90
27306;DHT22;14792;50.886;6.468;2023-04-06T10:38:07;13.20;99.90
27306;DHT22;14792;50.886;6.468;2023-04-06T10:41:09;13.20;99.90
27306;DHT22;14792;50.886;6.468;2023-04-06T10:44:22;13.00;99.90
27306;DHT22;14792;50.886;6.468;2023-04-06T10:47:20;13.00;99.90
27306;DHT22;14792;50.886;6.468;2023-04-06T10:50:22;13.30;99.90
27306;DHT22;14792;50.886;6.468;2023-04-06T10:53:25;13.30;99.90
27306;DHT22;14792;50.886;6.468;2023-04-06T10:56:27;13.40;99.90
27306;DHT22;14792;50.886;6.468;2023-04-06T10:59:29;13.60;99.90
27306;DHT22;14792;50.886;6.468;2023-04-06T11:02:31;13.90;99.90
27306;DHT22;14792;50.886;6.468;2023-04-06T11:05:32;13.90;99.90
27306;DHT22;14792;50.886;6.468;2023-04-06T11:08:34;13.70;99.90
27306;DHT22;14792;50.886;6.468;2023-04-06T11:11:38;13.90;99.90
27306;DHT22;14792;50.886;6.468;2023-04-06T11:14:40;14.00;99.90
27306;DHT22;14792;50.886;6.468;2023-04-06T11:17:41;14.20;99.90
27306;DHT22;14792;50.886;6.468;2023-04-06T11:20:47;14.30;99.90
27306;DHT22;14792;50.886;6.468;2023-04-06T11:23:44;14.00;99.90
27306;DHT22;14792;50.886;6.468;2023-04-06T11:26:50;13.90;99.90
27306;DHT22;14792;50.886;6.468;2023-04-06T11:29:51;13.80;99.90
27306;DHT22;14792;50.886;6.468;2023-04-06T11:32:59;13.80;99.90
27306;DHT22;14792;50.886;6.468;2023-04-06T11:35:57;13.90;99.90
27306;DHT22;14792;50.886;6.468;2023-04-06T11:38:56;13.80;99.90
27306;DHT22;14792;50.886;6.468;2023-04-06T11:41:58;13.70;99.90
27306;DHT22;14792;50.886;6.468;2023-04-06T11:44:59;13.80;99.90
27306;DHT22;14792;50.886;6.468;2023-04-06T11:48:01;13.60;99.90
27306;DHT22;14792;50.886;6.468;2023-04-06T11:51:02;13.60;99.90
27306;DHT22;14792;50.886;6.468;2023-04-06T11:54:04;13.50;99.90
27306;DHT22;14792;50.886;6.468;2023-04-06T11:57:05;13.30;99.90
27306;DHT22;14792;50.886;6.468;2023-04-06T12:00:08;13.30;99.90
27306;DHT22;14792;50.886;6.468;2023-04-06T12:03:09;12.80;99.90
27306;DHT22;14792;50.886;6.468;2023-04-06T12:06:10;12.80;99.90
27306;DHT22;14792;50.886;6.468;2023-04-06T12:09:12;12.70;99.90
27306;DHT22;14792;50.886;6.468;2023-04-06T12:12:14;12.60;99.90
27306;DHT22;14792;50.886;6.468;2023-04-06T12:15:15;12.60;99.90
27306;DHT22;14792;50.886;6.468;2023-04-06T12:18:17;12.40;99.90
27306;DHT22;14792;50.886;6.468;2023-04-06T12:21:18;12.10;99.90
27306;DHT22;14792;50.886;6.468;2023-04-06T12:24:20;12.00;99.90
27306;DHT22;14792;50.886;6.468;2023-04-06T12:27:21;12.00;99.90
27306;DHT22;14792;50.886;6.468;2023-04-06T12:30:23;11.90;99.90
27306;DHT22;14792;50.886;6.468;2023-04-06T12:33:25;11.60;99.90
27306;DHT22;14792;50.886;6.468;2023-04-06T12:36:26;11.60;99.90
27306;DHT22;14792;50.886;6.468;2023-04-06T12:39:28;11.90;99.90
27306;DHT22;14792;50.886;6.468;2023-04-06T12:42:29;11.90;99.90
27306;DHT22;14792;50.886;6.468;2023-04-06T12:45:31;11.70;99.90
27306;DHT22;14792;50.886;6.468;2023-04-06T12:48:33;11.40;99.90
27306;DHT22;14792;50.886;6.468;2023-04-06T12:51:34;11.20;99.90
27306;DHT22;14792;50.886;6.468;2023-04-06T12:54:36;10.90;99.90
27306;DHT22;14792;50.886;6.468;2023-04-06T12:57:37;10.80;99.90
27306;DHT22;14792;50.886;6.468;2023-04-06T13:00:39;10.70;99.90
27306;DHT22;14792;50.886;6.468;2023-04-06T13:03:41;10.60;99.90
27306;DHT22;14792;50.886;6.468;2023-04-06T13:06:42;10.50;99.90
27306;DHT22;14792;50.886;6.468;2023-04-06T13:09:44;10.50;99.90
27306;DHT22;14792;50.886;6.468;2023-04-06T13:12:45;10.30;99.90
27306;DHT22;14792;50.886;6.468;2023-04-06T13:15:47;10.30;99.90
27306;DHT22;14792;50.886;6.468;2023-04-06T13:18:48;10.40;99.90
27306;DHT22;14792;50.886;6.468;2023-04-06T13:21:50;10.50;99.90
27306;DHT22;14792;50.886;6.468;2023-04-06T13:24:58;10.60;99.90
27306;DHT22;14792;50.886;6.468;2023-04-06T13:27:59;10.40;99.90
27306;DHT22;14792;50.886;6.468;2023-04-06T13:31:01;10.30;99.90
27306;DHT22;14792;50.886;6.468;2023-04-06T13:34:03;10.10;99.90
27306;DHT22;14792;50.886;6.468;2023-04-06T13:37:04;10.10;99.90
27306;DHT22;14792;50.886;6.468;2023-04-06T13:40:06;9.90;99.90
27306;DHT22;14792;50.886;6.468;2023-04-06T13:43:08;9.80;99.90
27306;DHT22;14792;50.886;6.468;2023-04-06T13:46:09;9.70;99.90
27306;DHT22;14792;50.886;6.468;2023-04-06T13:49:11;9.70;99.90
27306;DHT22;14792;50.886;6.468;2023-04-06T13:52:13;9.80;99.90
27306;DHT22;14792;50.886;6.468;2023-04-06T13:55:14;9.70;99.90
27306;DHT22;14792;50.886;6.468;2023-04-06T13:58:16;9.60;99.90
27306;DHT22;14792;50.886;6.468;2023-04-06T14:01:17;9.50;99.90
27306;DHT22;14792;50.886;6.468;2023-04-06T14:04:19;9.50;99.90
27306;DHT22;14792;50.886;6.468;2023-04-06T14:07:21;9.30;99.90
27306;DHT22;14792;50.886;6.468;2023-04-06T14:10:22;9.40;99.90
27306;DHT22;14792;50.886;6.468;2023-04-06T14:13:24;9.50;99.90
27306;DHT22;14792;50.886;6.468;2023-04-06T14:16:25;9.40;99.90
27306;DHT22;14792;50.886;6.468;2023-04-06T14:19:27;9.40;99.90
27306;DHT22;14792;50.886;6.468;2023-04-06T14:22:29;9.30;99.90
27306;DHT22;14792;50.886;6.468;2023-04-06T14:25:30;9.40;99.90
27306;DHT22;14792;50.886;6.468;2023-04-06T14:28:37;9.40;99.90
27306;DHT22;14792;50.886;6.468;2023-04-06T14:31:37;9.50;99.90
27306;DHT22;14792;50.886;6.468;2023-04-06T14:34:39;9.50;99.90
27306;DHT22;14792;50.886;6.468;2023-04-06T14:37:40;9.60;99.90
27306;DHT22;14792;50.886;6.468;2023-04-06T14:40:42;9.60;99.90
27306;DHT22;14792;50.886;6.468;2023-04-06T14:43:44;9.50;99.90
27306;DHT22;14792;50.886;6.468;2023-04-06T14:46:45;9.50;99.90
27306;DHT22;14792;50.886;6.468;2023-04-06T14:49:48;9.40;99.90
27306;DHT22;14792;50.886;6.468;2023-04-06T14:52:48;9.30;99.90
27306;DHT22;14792;50.886;6.468;2023-04-06T14:55:50;9.30;99.90
27306;DHT22;14792;50.886;6.468;2023-04-06T14:58:52;9.20;99.90
27306;DHT22;14792;50.886;6.468;2023-04-06T15:01:53;9.00;99.90
27306;DHT22;14792;50.886;6.468;2023-04-06T15:04:55;9.00;99.90
27306;DHT22;14792;50.886;6.468;2023-04-06T15:07:56;8.90;99.90
27306;DHT22;14792;50.886;6.468;2023-04-06T15:10:58;8.90;99.90
27306;DHT22;14792;50.886;6.468;2023-04-06T15:14:00;8.80;99.90
27306;DHT22;14792;50.886;6.468;2023-04-06T15:17:01;8.70;99.90
27306;DHT22;14792;50.886;6.468;2023-04-06T15:20:03;8.80;99.90
27306;DHT22;14792;50.886;6.468;2023-04-06T15:23:04;8.80;99.90
27306;DHT22;14792;50.886;6.468;2023-04-06T15:26:06;8.90;99.90
27306;DHT22;14792;50.886;6.468;2023-04-06T15:29:08;8.70;99.90
27306;DHT22;14792;50.886;6.468;2023-04-06T15:32:09;8.70;99.90
27306;DHT22;14792;50.886;6.468;2023-04-06T15:35:11;8.70;99.90
27306;DHT22;14792;50.886;6.468;2023-04-06T15:38:12;8.70;99.90
27306;DHT22;14792;50.886;6.468;2023-04-06T15:41:14;8.60;99.90
27306;DHT22;14792;50.886;6.468;2023-04-06T15:44:16;8.60;99.90
27306;DHT22;14792;50.886;6.468;2023-04-06T15:47:17;8.60;99.90
27306;DHT22;14792;50.886;6.468;2023-04-06T15:50:19;8.50;99.90
27306;DHT22;14792;50.886;6.468;2023-04-06T15:53:20;8.60;99.90
27306;DHT22;14792;50.886;6.468;2023-04-06T15:56:22;8.60;99.90
27306;DHT22;14792;50.886;6.468;2023-04-06T15:59:24;8.60;99.90
27306;DHT22;14792;50.886;6.468;2023-04-06T16:02:25;8.50;99.90
27306;DHT22;14792;50.886;6.468;2023-04-06T16:05:28;8.50;99.90
27306;DHT22;14792;50.886;6.468;2023-04-06T16:08:28;8.50;99.90
27306;DHT22;14792;50.886;6.468;2023-04-06T16:11:30;8.50;99.90
27306;DHT22;14792;50.886;6.468;2023-04-06T16:14:32;8.50;99.90
27306;DHT22;14792;50.886;6.468;2023-04-06T16:17:33;8.50;99.90
27306;DHT22;14792;50.886;6.468;2023-04-06T16:20:35;8.50;99.90
27306;DHT22;14792;50.886;6.468;2023-04-06T16:23:36;8.50;99.90
27306;DHT22;14792;50.886;6.468;2023-04-06T16:26:38;8.50;99.90
27306;DHT22;14792;50.886;6.468;2023-04-06T16:29:39;8.50;99.90
27306;DHT22;14792;50.886;6.468;2023-04-06T16:32:41;8.50;99.90
27306;DHT22;14792;50.886;6.468;2023-04-06T16:35:43;8.60;99.90
27306;DHT22;14792;50.886;6.468;2023-04-06T16:38:44;8.60;99.90
27306;DHT22;14792;50.886;6.468;2023-04-06T16:41:46;8.60;99.90
27306;DHT22;14792;50.886;6.468;2023-04-06T16:44:48;8.50;99.90
27306;DHT22;14792;50.886;6.468;2023-04-06T16:47:49;8.60;99.90
27306;DHT22;14792;50.886;6.468;2023-04-06T16:50:51;8.50;99.90
27306;DHT22;14792;50.886;6.468;2023-04-06T16:53:52;8.40;99.90
27306;DHT22;14792;50.886;6.468;2023-04-06T16:56:54;8.40;99.90
27306;DHT22;14792;50.886;6.468;2023-04-06T16:59:55;8.30;99.90
27306;DHT22;14792;50.886;6.468;2023-04-06T17:02:57;8.30;99.90
27306;DHT22;14792;50.886;6.468;2023-04-06T17:05:59;8.30;99.90
27306;DHT22;14792;50.886;6.468;2023-04-06T17:09:00;8.20;99.90
27306;DHT22;14792;50.886;6.468;2023-04-06T17:12:02;8.20;99.90
27306;DHT22;14792;50.886;6.468;2023-04-06T17:15:03;8.20;99.90
27306;DHT22;14792;50.886;6.468;2023-04-06T17:18:05;8.20;99.90
27306;DHT22;14792;50.886;6.468;2023-04-06T17:21:07;8.10;99.90
27306;DHT22;14792;50.886;6.468;2023-04-06T17:24:08;8.00;99.90
27306;DHT22;14792;50.886;6.468;2023-04-06T17:27:10;8.00;99.90
27306;DHT22;14792;50.886;6.468;2023-04-06T17:30:12;7.90;99.90
27306;DHT22;14792;50.886;6.468;2023-04-06T17:33:13;7.90;99.90
27306;DHT22;14792;50.886;6.468;2023-04-06T17:36:15;7.90;99.90
27306;DHT22;14792;50.886;6.468;2023-04-06T17:39:16;7.80;99.90
27306;DHT22;14792;50.886;6.468;2023-04-06T17:42:18;7.80;99.90
27306;DHT22;14792;50.886;6.468;2023-04-06T17:45:19;7.80;99.90
27306;DHT22;14792;50.886;6.468;2023-04-06T17:48:21;7.70;99.90
27306;DHT22;14792;50.886;6.468;2023-04-06T17:51:22;7.70;99.90
27306;DHT22;14792;50.886;6.468;2023-04-06T17:54:24;7.70;99.90
27306;DHT22;14792;50.886;6.468;2023-04-06T17:57:27;7.70;99.90
27306;DHT22;14792;50.886;6.468;2023-04-06T18:00:29;7.70;99.90
27306;DHT22;14792;50.886;6.468;2023-04-06T18:03:30;7.70;99.90
27306;DHT22;14792;50.886;6.468;2023-04-06T18:06:33;7.70;99.90
27306;DHT22;14792;50.886;6.468;2023-04-06T18:09:35;7.70;99.90
27306;DHT22;14792;50.886;6.468;2023-04-06T18:12:36;7.70;99.90
27306;DHT22;14792;50.886;6.468;2023-04-06T18:15:38;7.80;99.90
27306;DHT22;14792;50.886;6.468;2023-04-06T18:18:39;7.70;99.90
27306;DHT22;14792;50.886;6.468;2023-04-06T18:21:43;7.70;99.90
27306;DHT22;14792;50.886;6.468;2023-04-06T18:24:44;7.70;99.90
27306;DHT22;14792;50.886;6.468;2023-04-06T18:27:46;7.70;99.90
27306;DHT22;14792;50.886;6.468;2023-04-06T18:30:48;7.70;99.90
27306;DHT22;14792;50.886;6.468;2023-04-06T18:33:49;7.70;99.90
27306;DHT22;14792;50.886;6.468;2023-04-06T18:36:51;7.70;99.90
27306;DHT22;14792;50.886;6.468;2023-04-06T18:39:53;7.60;99.90
27306;DHT22;14792;50.886;6.468;2023-04-06T18:42:54;7.60;99.90
27306;DHT22;14792;50.886;6.468;2023-04-06T18:45:56;7.60;99.90
27306;DHT22;14792;50.886;6.468;2023-04-06T18:48:57;7.60;99.90
27306;DHT22;14792;50.886;6.468;2023-04-06T18:51:59;7.60;99.90
27306;DHT22;14792;50.886;6.468;2023-04-06T18:55:01;7.40;99.90
27306;DHT22;14792;50.886;6.468;2023-04-06T18:58:02;7.60;99.90
27306;DHT22;14792;50.886;6.468;2023-04-06T19:01:04;7.60;99.90
27306;DHT22;14792;50.886;6.468;2023-04-06T19:04:05;7.60;99.90
27306;DHT22;14792;50.886;6.468;2023-04-06T19:07:07;7.60;99.90
27306;DHT22;14792;50.886;6.468;2023-04-06T19:10:09;7.70;99.90
27306;DHT22;14792;50.886;6.468;2023-04-06T19:13:10;7.60;99.90
27306;DHT22;14792;50.886;6.468;2023-04-06T19:16:12;7.60;99.90
27306;DHT22;14792;50.886;6.468;2023-04-06T19:19:13;7.70;99.90
27306;DHT22;14792;50.886;6.468;2023-04-06T19:22:15;7.70;99.90
27306;DHT22;14792;50.886;6.468;2023-04-06T19:25:17;7.70;99.90